Time;durP1;ratioP1;P1;durP2;ratioP2;P2;SDS_P1;SDS_P2;PMS_P1;PMS_P2;Temp;Humidity;BMP_temperature;BMP_pressure;BME280_temperature;BME280_humidity;BME280_pressure;Samples;Min_cycle;Max_cycle;Signal;HPM_P1;HPM_P2
2021/11/07 00:01:03;;;;;;;7.10;5.65;;;;;;;9.01;72.76;101179.00;5010965;28;20025;-44
2021/11/07 00:03:41;;;;;;;6.78;5.65;;;;;;;9.00;72.82;101178.13;5000618;28;20034;-44
2021/11/07 00:06:20;;;;;;;7.28;5.63;;;;;;;9.01;72.72;101163.22;4992317;28;20093;-43
2021/11/07 00:08:56;;;;;;;7.68;6.05;;;;;;;9.01;72.68;101164.13;4992485;28;20105;-44
2021/11/07 00:11:30;;;;;;;6.60;5.57;;;;;;;8.98;72.64;101150.94;4992682;28;20393;-43
2021/11/07 00:13:56;;;;;;;7.00;5.10;;;;;;;9.00;72.85;101146.53;5007900;28;20028;-43
2021/11/07 00:16:27;;;;;;;7.43;5.03;;;;;;;9.00;72.91;101125.50;5007896;28;20034;-44
2021/11/07 00:19:25;;;;;;;7.72;5.68;;;;;;;8.98;72.80;101127.25;5006864;28;20372;-44
2021/11/07 00:21:53;;;;;;;5.93;5.00;;;;;;;9.00;72.66;101124.63;4994347;28;20045;-44
2021/11/07 00:24:28;;;;;;;6.50;5.30;;;;;;;8.99;72.92;101118.47;4994134;28;20140;-44
2021/11/07 00:29:26;;;;;;;9.93;5.72;;;;;;;8.98;72.72;101100.94;5002681;28;20486;-44
2021/11/07 00:36:53;;;;;;;7.05;5.10;;;;;;;9.00;72.74;101098.31;4992074;28;20049;-43
2021/11/07 00:39:30;;;;;;;5.97;4.93;;;;;;;8.98;72.79;101080.75;4997525;28;20025;-43
2021/11/07 00:42:12;;;;;;;7.40;5.30;;;;;;;8.97;72.59;101057.97;5011922;28;20474;-41
2021/11/07 00:44:56;;;;;;;6.68;4.93;;;;;;;8.98;72.68;101069.38;5009389;28;20394;-44
2021/11/07 00:47:32;;;;;;;;;;;;;;;8.96;72.93;101060.59;5011169;28;20029;-43
2021/11/07 00:50:03;;;;;;;6.07;5.00;;;;;;;8.96;72.82;101053.59;4992519;28;19920;-44
2021/11/07 00:52:50;;;;;;;7.30;5.45;;;;;;;8.96;72.69;101055.31;4992030;28;20037;-44
2021/11/07 00:55:22;;;;;;;5.68;4.82;;;;;;;8.96;72.75;101044.81;4992487;28;20067;-44
2021/11/07 00:57:55;;;;;;;5.65;5.05;;;;;;;8.96;72.86;101055.31;4991872;28;20387;-43
2021/11/07 01:03:02;;;;;;;6.78;4.93;;;;;;;8.95;72.89;101041.31;4992542;28;20418;-44
2021/11/07 01:05:40;;;;;;;6.63;4.97;;;;;;;8.96;72.68;101047.44;5002739;28;20069;-44
2021/11/07 01:08:06;;;;;;;6.68;4.90;;;;;;;8.95;72.67;101028.16;5011697;28;20057;-44
2021/11/07 01:10:32;;;;;;;5.05;4.47;;;;;;;8.95;72.77;101014.13;5011634;28;20053;-44
2021/11/07 01:12:58;;;;;;;6.95;4.90;;;;;;;8.97;72.74;101009.75;5015329;28;20026;-42
2021/11/07 01:15:25;;;;;;;6.25;4.88;;;;;;;8.95;72.84;101017.63;5011979;28;20388;-44
2021/11/07 01:17:50;;;;;;;5.35;4.68;;;;;;;8.96;72.88;101014.13;5015217;28;20478;-44
2021/11/07 01:20:18;;;;;;;4.93;4.43;;;;;;;8.95;72.65;101006.22;4995999;28;20030;-44
2021/11/07 01:25:09;;;;;;;6.22;4.97;;;;;;;8.94;72.66;100993.94;4995623;28;20058;-44
2021/11/07 01:27:38;;;;;;;5.35;4.30;;;;;;;8.95;72.81;100986.06;5024594;28;20033;-43
2021/11/07 01:30:11;;;;;;;5.03;4.53;;;;;;;8.96;72.80;100976.41;4995081;28;20026;-43
2021/11/07 01:32:41;;;;;;;5.95;5.03;;;;;;;8.94;72.73;100975.53;4996411;28;20045;-43
2021/11/07 01:37:43;;;;;;;5.38;4.50;;;;;;;8.93;72.69;100960.59;4994878;28;20519;-43
2021/11/07 01:42:36;;;;;;;4.53;4.03;;;;;;;8.95;72.71;100937.81;5014766;28;20413;-43
2021/11/07 01:45:14;;;;;;;8.23;4.95;;;;;;;8.94;72.58;100933.44;5006183;28;20026;-43
2021/11/07 01:47:47;;;;;;;5.55;4.53;;;;;;;8.94;72.54;100946.59;5015165;28;20024;-44
2021/11/07 01:50:13;;;;;;;6.53;5.00;;;;;;;8.95;72.75;100938.72;5012541;28;20034;-43
2021/11/07 01:52:41;;;;;;;5.40;4.00;;;;;;;8.95;72.51;100935.19;5014608;28;20029;-43
2021/11/07 01:55:07;;;;;;;5.13;4.60;;;;;;;8.94;72.57;100941.34;5014474;28;20112;-44
2021/11/07 01:57:35;;;;;;;5.40;4.22;;;;;;;8.94;72.58;100938.72;5013902;28;20536;-44
2021/11/07 02:00:26;;;;;;;5.03;4.53;;;;;;;8.93;72.57;100932.56;4998168;28;20544;-44
2021/11/07 02:02:51;;;;;;;4.93;4.50;;;;;;;8.92;72.71;100907.13;5006235;28;20044;-44
2021/11/07 02:05:17;;;;;;;5.03;4.53;;;;;;;8.93;72.61;100892.22;5013680;28;20018;-44
2021/11/07 02:07:42;;;;;;;6.00;4.50;;;;;;;8.91;72.46;100899.25;5014397;28;20025;-43
2021/11/07 02:10:28;;;;;;;5.28;4.57;;;;;;;8.92;72.67;100900.97;5013949;28;20030;-44
2021/11/07 02:12:53;;;;;;;5.13;4.40;;;;;;;8.91;72.56;100899.25;4999730;28;20046;-43
2021/11/07 02:15:20;;;;;;;4.57;4.03;;;;;;;8.93;72.66;100901.00;4994497;28;20451;-44
2021/11/07 02:17:46;;;;;;;5.00;4.50;;;;;;;8.92;72.76;100904.50;4993494;28;20049;-44
2021/11/07 02:20:29;;;;;;;5.68;4.82;;;;;;;8.94;72.60;100912.41;4992866;28;20391;-44
2021/11/07 02:22:55;;;;;;;5.00;4.30;;;;;;;8.92;72.64;100893.97;5007939;28;20524;-44
2021/11/07 02:25:20;;;;;;;6.07;4.20;;;;;;;8.90;72.54;100894.84;5013467;28;20030;-44
2021/11/07 02:27:46;;;;;;;5.82;4.78;;;;;;;8.92;72.05;100890.47;5013849;28;20034;-44
2021/11/07 02:30:14;;;;;;;4.22;3.70;;;;;;;8.92;72.61;100887.81;5005436;28;20022;-44
2021/11/07 02:32:41;;;;;;;6.05;4.50;;;;;;;8.92;72.70;100879.94;5000309;28;20072;-43
2021/11/07 02:35:06;;;;;;;4.63;4.22;;;;;;;8.91;72.89;100883.44;5012891;28;20026;-44
2021/11/07 02:37:32;;;;;;;4.40;4.00;;;;;;;8.90;72.66;100886.97;5011988;28;20036;-44
2021/11/07 02:39:57;;;;;;;6.30;4.47;;;;;;;8.92;72.49;100874.69;5012083;28;20497;-43
2021/11/07 02:42:22;;;;;;;4.93;3.92;;;;;;;8.91;72.51;100867.66;5013542;28;20026;-44
2021/11/07 02:44:48;;;;;;;4.68;4.00;;;;;;;8.92;72.56;100864.16;5013093;28;20034;-43
2021/11/07 02:47:16;;;;;;;5.32;4.13;;;;;;;8.90;72.42;100847.50;5003169;28;20044;-43
2021/11/07 02:49:44;;;;;;;4.93;4.43;;;;;;;8.91;72.54;100841.38;4993750;28;20033;-43
2021/11/07 02:52:14;;;;;;;5.15;4.32;;;;;;;8.89;72.46;100817.69;4992650;28;20018;-44
2021/11/07 02:54:40;;;;;;;5.15;4.53;;;;;;;8.90;72.42;100821.22;4994570;28;20018;-44
2021/11/07 02:57:07;;;;;;;4.88;4.40;;;;;;;8.90;72.37;100824.69;4992427;28;20022;-44
2021/11/07 02:59:37;;;;;;;7.00;4.97;;;;;;;8.91;72.41;100822.94;4993320;28;20019;-43
2021/11/07 03:02:03;;;;;;;5.93;4.35;;;;;;;8.90;72.32;100818.56;4993793;28;20028;-43
2021/11/07 03:04:29;;;;;;;5.20;4.13;;;;;;;8.92;72.23;100822.06;4993411;28;20054;-43
2021/11/07 03:06:55;;;;;;;5.28;4.00;;;;;;;8.91;72.54;100830.84;4993226;28;20054;-43
2021/11/07 03:09:41;;;;;;;4.75;4.20;;;;;;;8.89;72.50;100829.94;4993590;28;20030;-43
2021/11/07 03:12:09;;;;;;;5.60;4.50;;;;;;;8.90;72.37;100827.31;4999793;28;20037;-44
2021/11/07 03:14:37;;;;;;;5.05;4.32;;;;;;;8.90;72.45;100818.56;5013037;28;20097;-44
2021/11/07 03:17:05;;;;;;;4.47;3.95;;;;;;;8.89;72.52;100806.28;5001723;28;20581;-44
2021/11/07 03:19:31;;;;;;;4.78;3.88;;;;;;;8.88;72.47;100813.31;5012346;28;20032;-44
2021/11/07 03:21:58;;;;;;;4.65;4.22;;;;;;;8.90;72.33;100808.06;4999308;28;20030;-44
2021/11/07 03:24:24;;;;;;;4.70;4.20;;;;;;;8.89;72.34;100806.28;4999187;28;20036;-44
2021/11/07 03:26:50;;;;;;;4.82;4.07;;;;;;;8.88;72.29;100794.00;4994381;28;20030;-43
2021/11/07 03:29:16;;;;;;;4.45;4.05;;;;;;;8.89;72.39;100801.03;4993245;28;20033;-44
2021/11/07 03:31:56;;;;;;;4.97;4.13;;;;;;;8.87;72.31;100782.59;4992570;28;20069;-43
2021/11/07 03:34:30;;;;;;;5.45;3.60;;;;;;;8.89;72.24;100782.59;5003688;28;20430;-45
2021/11/07 03:37:00;;;;;;;6.38;4.35;;;;;;;8.89;72.15;100780.88;4994964;28;20170;-45
2021/11/07 03:39:28;;;;;;;5.28;4.13;;;;;;;8.88;72.51;100772.97;5003416;28;20068;-45
2021/11/07 03:41:53;;;;;;;6.07;4.63;;;;;;;8.87;72.41;100765.97;5000728;28;20121;-45
2021/11/07 03:44:21;;;;;;;6.28;4.25;;;;;;;8.88;72.38;100765.06;4992644;28;20031;-45
2021/11/07 03:46:49;;;;;;;4.97;4.35;;;;;;;8.87;72.40;100760.69;4996369;28;20451;-45
2021/11/07 03:49:15;;;;;;;4.38;3.97;;;;;;;8.88;72.25;100754.56;4993956;28;20022;-45
2021/11/07 03:51:40;;;;;;;4.43;4.03;;;;;;;8.87;72.61;100756.31;4992548;28;20034;-44
2021/11/07 03:54:08;;;;;;;5.72;4.75;;;;;;;8.88;72.26;100751.94;4999948;28;20018;-44
2021/11/07 03:56:33;;;;;;;4.45;3.67;;;;;;;8.88;72.40;100746.66;4993300;28;20026;-43
2021/11/07 03:58:58;;;;;;;4.78;3.85;;;;;;;8.89;72.36;100738.78;5004243;28;20037;-44
2021/11/07 04:01:24;;;;;;;4.32;3.70;;;;;;;8.87;72.23;100734.41;5010483;28;20113;-45
2021/11/07 04:03:49;;;;;;;4.93;4.32;;;;;;;8.85;72.25;100718.63;4997893;28;20034;-45
2021/11/07 04:06:16;;;;;;;5.18;3.97;;;;;;;8.87;72.32;100724.75;5012700;28;20447;-44
2021/11/07 04:08:41;;;;;;;7.38;4.60;;;;;;;8.87;72.41;100729.13;4997300;28;20049;-44
2021/11/07 04:11:07;;;;;;;4.60;4.20;;;;;;;8.87;72.28;100731.78;5000210;28;20486;-44
2021/11/07 04:13:37;;;;;;;5.10;4.10;;;;;;;8.89;72.11;100733.53;5020279;28;20397;-44
2021/11/07 04:16:02;;;;;;;5.55;4.47;;;;;;;8.89;72.51;100743.16;4994607;28;20034;-44
2021/11/07 04:18:27;;;;;;;5.28;4.60;;;;;;;8.87;72.28;100750.19;4992106;28;20154;-44
2021/11/07 04:20:53;;;;;;;4.55;4.15;;;;;;;8.87;72.04;100737.88;4994072;28;20230;-44
2021/11/07 04:23:18;;;;;;;4.43;4.00;;;;;;;8.87;72.34;100729.13;5008186;28;20109;-43
2021/11/07 04:25:47;;;;;;;7.00;4.10;;;;;;;8.85;72.40;100727.41;4993692;28;20041;-43
2021/11/07 04:28:12;;;;;;;4.32;3.72;;;;;;;8.85;72.41;100724.78;5002753;28;20019;-44
2021/11/07 04:30:37;;;;;;;4.70;4.00;;;;;;;8.85;72.38;100710.72;5003809;28;20765;-43
2021/11/07 04:33:03;;;;;;;4.85;4.35;;;;;;;8.83;72.42;100713.34;4998481;28;20053;-43
2021/11/07 04:35:28;;;;;;;5.60;4.03;;;;;;;8.83;72.55;100708.09;4998521;28;20541;-43
2021/11/07 04:37:55;;;;;;;4.80;4.10;;;;;;;8.84;72.25;100703.72;4993779;28;20034;-43
2021/11/07 04:40:20;;;;;;;4.40;3.88;;;;;;;8.84;72.33;100706.34;4995366;28;20037;-44
2021/11/07 04:42:46;;;;;;;4.70;4.18;;;;;;;8.85;72.34;100706.34;5004165;28;20406;-43
2021/11/07 04:45:12;;;;;;;5.68;4.50;;;;;;;8.87;72.25;100702.84;5006002;28;20026;-45
2021/11/07 04:47:38;;;;;;;4.90;4.43;;;;;;;8.84;72.17;100688.81;5012832;28;20057;-44
2021/11/07 04:50:05;;;;;;;5.20;4.15;;;;;;;8.85;72.48;100700.22;5008385;28;20471;-44
2021/11/07 04:52:32;;;;;;;4.53;4.13;;;;;;;8.84;72.41;100693.22;5005960;28;20081;-44
2021/11/07 04:54:57;;;;;;;5.45;4.63;;;;;;;8.85;72.25;100693.22;5008994;28;20486;-44
2021/11/07 04:57:23;;;;;;;5.43;4.35;;;;;;;8.84;72.44;100690.56;5005719;28;20105;-44
2021/11/07 04:59:50;;;;;;;5.72;4.68;;;;;;;8.84;72.32;100675.66;5002840;28;20036;-44
2021/11/07 05:02:15;;;;;;;5.35;4.82;;;;;;;8.83;72.33;100671.28;5003660;28;20026;-43
2021/11/07 05:04:41;;;;;;;6.20;4.47;;;;;;;8.83;72.36;100666.03;4997625;28;20485;-44
2021/11/07 05:07:06;;;;;;;5.55;4.13;;;;;;;8.85;72.28;100652.88;5013872;28;20050;-45
2021/11/07 05:09:32;;;;;;;5.35;4.20;;;;;;;8.83;72.36;100644.09;5015096;28;20180;-43
2021/11/07 05:11:57;;;;;;;4.45;3.92;;;;;;;8.82;72.38;100632.72;5002957;28;20184;-45
2021/11/07 05:14:22;;;;;;;5.95;4.60;;;;;;;8.84;72.31;100640.59;5015056;28;20030;-44
2021/11/07 05:16:48;;;;;;;4.65;4.25;;;;;;;8.83;72.23;100633.56;5008004;28;20076;-43
2021/11/07 05:19:13;;;;;;;4.72;4.22;;;;;;;8.83;72.47;100631.81;5004148;28;20038;-45
2021/11/07 05:21:39;;;;;;;5.28;4.05;;;;;;;8.85;72.25;100634.47;5008265;28;20464;-44
2021/11/07 05:24:06;;;;;;;5.25;4.63;;;;;;;8.83;72.21;100616.03;4990205;28;20099;-44
2021/11/07 05:26:31;;;;;;;4.95;4.30;;;;;;;8.82;72.18;100603.78;4999682;28;20030;-45
2021/11/07 05:28:57;;;;;;;5.22;4.63;;;;;;;8.83;72.29;100602.91;5006497;28;20056;-42
2021/11/07 05:31:23;;;;;;;5.00;4.20;;;;;;;8.82;72.25;100588.00;5000419;28;20022;-41
2021/11/07 05:33:48;;;;;;;6.68;4.50;;;;;;;8.83;72.43;100591.50;5010525;28;20022;-41
2021/11/07 05:36:14;;;;;;;5.68;4.47;;;;;;;8.82;72.41;100587.13;4995153;28;20037;-41
2021/11/07 05:38:40;;;;;;;6.35;4.50;;;;;;;8.81;72.46;100578.34;5002247;28;20055;-42
2021/11/07 05:41:05;;;;;;;5.57;4.70;;;;;;;8.82;72.38;100587.13;5003739;28;20041;-42
2021/11/07 05:43:30;;;;;;;5.03;4.03;;;;;;;8.81;72.61;100572.22;5008628;28;20125;-41
2021/11/07 05:45:56;;;;;;;5.65;4.93;;;;;;;8.82;71.93;100572.22;5004677;28;20034;-43
2021/11/07 05:48:21;;;;;;;6.07;4.57;;;;;;;8.83;72.28;100568.72;5014922;28;20024;-43
2021/11/07 05:50:47;;;;;;;6.05;4.40;;;;;;;8.82;72.14;100561.72;5000943;28;20026;-43
2021/11/07 05:53:12;;;;;;;6.35;4.82;;;;;;;8.82;72.39;100568.72;5013370;28;20454;-43
2021/11/07 05:55:37;;;;;;;5.78;4.32;;;;;;;8.82;72.51;100559.06;5011271;28;20076;-43
2021/11/07 05:58:03;;;;;;;6.38;4.47;;;;;;;8.82;72.42;100552.94;5010166;28;20088;-42
2021/11/07 06:00:29;;;;;;;5.82;4.88;;;;;;;8.80;72.41;100550.31;5014142;28;20034;-42
2021/11/07 06:02:55;;;;;;;5.97;4.50;;;;;;;8.83;72.38;100559.94;5012547;28;20569;-43
2021/11/07 06:05:23;;;;;;;5.50;4.50;;;;;;;8.82;72.37;100559.06;4995010;28;20023;-42
2021/11/07 06:07:49;;;;;;;6.75;5.78;;;;;;;8.81;72.44;100557.31;4999866;28;20033;-42
2021/11/07 06:10:16;;;;;;;6.13;5.03;;;;;;;8.82;72.35;100556.44;4997601;28;20508;-43
2021/11/07 06:12:42;;;;;;;5.82;4.55;;;;;;;8.82;72.47;100553.81;4998248;28;20097;-41
2021/11/07 06:15:08;;;;;;;6.43;5.40;;;;;;;8.81;72.56;100565.19;4983648;28;20238;-41
2021/11/07 06:17:33;;;;;;;5.75;5.00;;;;;;;8.81;72.55;100562.56;5005688;28;20049;-41
2021/11/07 06:20:04;;;;;;;6.05;4.95;;;;;;;8.82;72.48;100580.13;5002116;28;20053;-40
2021/11/07 06:22:30;;;;;;;6.65;5.15;;;;;;;8.82;72.52;100576.59;4999156;28;20494;-42
2021/11/07 06:24:56;;;;;;;5.20;4.53;;;;;;;8.82;72.40;100584.50;5007174;28;20030;-42
2021/11/07 06:27:21;;;;;;;5.18;4.63;;;;;;;8.81;72.42;100583.59;5001755;28;20030;-42
2021/11/07 06:29:46;;;;;;;5.88;5.28;;;;;;;8.81;72.55;100573.06;5007198;28;20032;-42
2021/11/07 06:32:12;;;;;;;6.35;5.00;;;;;;;8.81;72.35;100573.06;5004249;28;20514;-42
2021/11/07 06:34:38;;;;;;;7.30;5.28;;;;;;;8.82;72.51;100566.06;4999991;28;20026;-42
2021/11/07 06:37:08;;;;;;;5.45;4.57;;;;;;;8.81;72.55;100565.19;5003472;28;20026;-42
2021/11/07 06:39:35;;;;;;;5.32;4.78;;;;;;;8.80;72.61;100568.72;5006425;28;20030;-42
2021/11/07 06:42:01;;;;;;;5.80;5.07;;;;;;;8.81;72.55;100562.56;5005849;28;20026;-40
2021/11/07 06:44:26;;;;;;;6.95;5.68;;;;;;;8.80;72.40;100566.09;5010142;28;20026;-42
2021/11/07 06:46:53;;;;;;;6.22;5.20;;;;;;;8.82;72.61;100551.19;5005330;28;20521;-40
2021/11/07 06:49:59;;;;;;;6.60;5.03;;;;;;;8.82;72.43;100558.19;5001232;28;20494;-41
2021/11/07 06:52:25;;;;;;;5.78;5.00;;;;;;;8.82;72.56;100552.94;5006948;28;20101;-43
2021/11/07 06:54:52;;;;;;;5.95;4.85;;;;;;;8.81;72.72;100557.31;5000410;28;20042;-42
2021/11/07 06:57:18;;;;;;;6.72;5.40;;;;;;;8.81;72.72;100553.81;5000800;28;20034;-42
2021/11/07 06:59:43;;;;;;;7.53;5.22;;;;;;;8.80;72.76;100549.44;4997852;28;20026;-42
2021/11/07 07:02:08;;;;;;;5.45;4.80;;;;;;;8.82;72.67;100558.19;4997215;28;20073;-42
2021/11/07 07:04:34;;;;;;;6.75;5.60;;;;;;;8.78;72.47;100544.19;5005197;28;20026;-42
2021/11/07 07:06:59;;;;;;;5.95;5.13;;;;;;;8.79;72.92;100550.31;4995040;28;20149;-42
2021/11/07 07:09:28;;;;;;;6.30;5.25;;;;;;;8.79;72.73;100553.81;5007239;28;20030;-42
2021/11/07 07:12:09;;;;;;;6.97;5.15;;;;;;;8.81;72.75;100566.97;5005482;28;20093;-42
2021/11/07 07:14:44;;;;;;;7.10;5.35;;;;;;;8.80;72.67;100559.97;5001238;28;20733;-42
2021/11/07 07:17:23;;;;;;;8.15;5.85;;;;;;;8.80;72.80;100560.81;5000445;28;20049;-41
2021/11/07 07:20:19;;;;;;;6.30;4.80;;;;;;;8.80;72.64;100560.81;5004142;28;20058;-43
2021/11/07 07:25:49;;;;;;;6.15;4.80;;;;;;;8.80;72.92;100581.84;5000512;28;20754;-42
2021/11/07 07:31:22;;;;;;;6.20;5.10;;;;;;;8.79;72.89;100576.59;5000395;28;20140;-42
2021/11/07 07:33:58;;;;;;;6.55;5.13;;;;;;;8.80;72.82;100586.25;4995899;28;20044;-43
2021/11/07 07:36:33;;;;;;;7.03;5.22;;;;;;;8.77;72.72;100587.13;4992738;28;20030;-43
2021/11/07 07:38:58;;;;;;;7.40;5.55;;;;;;;8.78;72.87;100570.50;5005287;28;20030;-43
2021/11/07 07:41:24;;;;;;;6.70;5.53;;;;;;;8.77;72.72;100575.75;5005917;28;20081;-42
2021/11/07 07:43:51;;;;;;;6.00;4.97;;;;;;;8.79;72.91;100563.44;4995418;28;20034;-42
2021/11/07 07:46:21;;;;;;;5.78;5.18;;;;;;;8.80;72.74;100570.50;4998840;28;20025;-42
2021/11/07 07:48:47;;;;;;;6.85;5.63;;;;;;;8.78;73.01;100578.38;4998588;28;20057;-43
2021/11/07 07:51:15;;;;;;;6.13;5.50;;;;;;;8.78;72.81;100567.84;5004824;28;20131;-42
2021/11/07 07:53:41;;;;;;;5.63;4.93;;;;;;;8.79;72.81;100564.34;4994987;28;20030;-42
2021/11/07 07:56:10;;;;;;;5.95;4.95;;;;;;;8.79;72.84;100560.81;4995728;28;20030;-42
2021/11/07 07:58:37;;;;;;;7.22;5.75;;;;;;;8.78;72.73;100553.81;5005270;28;20527;-43
2021/11/07 08:01:03;;;;;;;8.25;5.15;;;;;;;8.80;72.80;100563.44;5008337;28;20034;-43
2021/11/07 08:03:29;;;;;;;7.80;5.72;;;;;;;8.79;72.83;100569.59;5008737;28;20034;-41
2021/11/07 08:05:55;;;;;;;6.88;5.32;;;;;;;8.79;72.93;100564.34;4999667;28;20037;-42
2021/11/07 08:08:20;;;;;;;6.75;5.03;;;;;;;8.79;72.97;100566.97;5000611;28;20033;-42
2021/11/07 08:10:46;;;;;;;7.38;5.22;;;;;;;8.78;72.92;100561.72;5002214;28;20041;-41
2021/11/07 08:13:11;;;;;;;7.07;5.30;;;;;;;8.79;73.16;100569.59;5001495;28;20040;-42
2021/11/07 08:15:37;;;;;;;5.70;5.15;;;;;;;8.78;72.83;100567.84;5004462;28;20489;-40
2021/11/07 08:18:02;;;;;;;6.47;4.90;;;;;;;8.78;72.87;100562.59;5001376;28;20545;-42
2021/11/07 08:20:27;;;;;;;6.60;5.35;;;;;;;8.78;72.77;100557.34;5003959;28;20022;-42
2021/11/07 08:22:53;;;;;;;6.22;5.15;;;;;;;8.79;72.96;100568.72;5001304;28;20022;-41
2021/11/07 08:25:22;;;;;;;5.38;4.80;;;;;;;8.78;72.79;100567.84;5001590;28;20041;-41
2021/11/07 08:27:51;;;;;;;6.25;5.07;;;;;;;8.77;72.91;100565.22;5010506;28;20061;-41
2021/11/07 08:30:19;;;;;;;6.25;5.20;;;;;;;8.79;72.87;100550.31;5006078;28;20063;-42
2021/11/07 08:32:45;;;;;;;6.43;5.05;;;;;;;8.79;72.94;100545.94;4998964;28;20049;-41
2021/11/07 08:35:10;;;;;;;6.07;4.90;;;;;;;8.76;72.86;100545.94;5001042;28;20027;-41
2021/11/07 08:38:10;;;;;;;6.13;4.78;;;;;;;8.76;72.94;100551.19;4999982;28;20049;-42
2021/11/07 08:40:34;;;;;;;;;;;;;;;8.76;72.95;100553.81;4996761;28;20037;-41
2021/11/07 09:02:25;;;;;;;4.95;4.45;;;;;;;8.78;72.91;100567.84;4996061;28;20469;-42
2021/11/07 09:07:35;;;;;;;4.82;4.05;;;;;;;8.76;73.23;100556.44;5004590;28;20133;-42
2021/11/07 09:10:19;;;;;;;5.22;4.22;;;;;;;8.77;73.07;100552.94;5000522;28;20018;-42
2021/11/07 09:12:45;;;;;;;5.18;4.68;;;;;;;8.75;73.13;100552.09;4998023;28;20088;-42
2021/11/07 09:15:12;;;;;;;5.63;5.07;;;;;;;8.76;73.06;100553.81;4999229;28;20021;-42
2021/11/07 09:17:38;;;;;;;5.07;4.03;;;;;;;8.76;73.13;100556.44;5000783;28;20478;-42
2021/11/07 09:20:07;;;;;;;4.53;4.03;;;;;;;8.77;72.95;100552.94;5004033;28;20061;-42
2021/11/07 09:22:48;;;;;;;5.30;4.45;;;;;;;8.76;73.05;100553.81;4998233;28;20048;-41
2021/11/07 09:25:24;;;;;;;5.27;4.77;;;;;;;8.75;73.20;100552.09;5004140;28;20474;-42
2021/11/07 09:28:01;;;;;;;6.03;4.57;;;;;;;8.77;72.94;100554.72;5011139;28;20030;-43
2021/11/07 09:33:12;;;;;;;5.20;4.32;;;;;;;8.77;73.20;100565.22;4997130;28;20038;-41
2021/11/07 09:38:14;;;;;;;4.80;3.80;;;;;;;8.78;73.00;100567.84;5002577;28;20098;-42
2021/11/07 09:40:47;;;;;;;5.18;4.47;;;;;;;8.78;73.02;100573.13;5000511;28;20155;-43
2021/11/07 09:43:27;;;;;;;4.22;3.83;;;;;;;8.78;73.15;100573.13;5007283;28;20061;-42
2021/11/07 09:46:21;;;;;;;4.10;3.67;;;;;;;8.78;73.05;100575.75;5001565;28;20026;-42
2021/11/07 09:48:41;;;;;;;5.05;4.40;;;;;;;8.76;73.08;100579.22;5000310;28;20509;-41
2021/11/07 09:51:16;;;;;;;3.95;3.65;;;;;;;8.75;73.12;100574.88;4998651;28;20030;-42
2021/11/07 09:53:43;;;;;;;4.85;3.80;;;;;;;8.77;73.27;100586.28;5005768;28;20053;-45
2021/11/07 09:56:10;;;;;;;4.28;3.45;;;;;;;8.76;73.19;100584.50;4997433;28;20486;-43
2021/11/07 09:58:35;;;;;;;3.78;3.40;;;;;;;8.75;73.21;100578.38;4997772;28;20034;-43
2021/11/07 10:01:00;;;;;;;3.90;3.60;;;;;;;8.76;73.20;100571.34;5001645;28;20026;-43
2021/11/07 10:03:40;;;;;;;3.72;3.22;;;;;;;8.76;73.19;100569.59;5004317;28;20473;-42
2021/11/07 10:06:23;;;;;;;3.80;3.35;;;;;;;8.78;73.06;100570.50;5001281;28;20070;-41
2021/11/07 10:08:48;;;;;;;3.72;3.38;;;;;;;8.75;73.13;100570.50;4993370;28;20030;-41
2021/11/07 10:11:13;;;;;;;4.57;3.80;;;;;;;8.75;73.35;100559.97;5006440;28;20041;-41
2021/11/07 10:13:56;;;;;;;3.40;3.10;;;;;;;8.75;73.26;100562.59;5006295;28;20026;-42
2021/11/07 10:16:39;;;;;;;3.42;3.13;;;;;;;8.77;73.17;100560.81;4998158;28;20113;-42
2021/11/07 10:19:32;;;;;;;4.55;3.45;;;;;;;8.76;73.33;100556.44;5003447;28;20027;-41
2021/11/07 10:21:58;;;;;;;3.63;3.33;;;;;;;8.75;73.43;100551.19;4995790;28;20026;-42
2021/11/07 10:24:30;;;;;;;3.63;3.33;;;;;;;8.76;73.29;100548.56;5006700;28;20033;-42
2021/11/07 10:27:01;;;;;;;3.67;3.38;;;;;;;8.75;73.34;100538.94;5006471;28;20516;-42
2021/11/07 10:29:41;;;;;;;3.38;3.08;;;;;;;8.76;73.46;100540.69;5002562;28;20030;-42
2021/11/07 10:32:24;;;;;;;3.60;3.20;;;;;;;8.76;73.48;100538.03;5017122;28;20042;-42
2021/11/07 10:46:19;;;;;;;3.83;3.05;;;;;;;8.75;73.74;100546.81;5008684;28;20169;-40
2021/11/07 10:54:28;;;;;;;4.18;3.78;;;;;;;8.77;73.61;100560.81;4995504;28;20060;-41
2021/11/07 10:57:17;;;;;;;4.53;4.10;;;;;;;8.76;73.56;100548.56;5001140;28;20101;-42
2021/11/07 11:00:05;;;;;;;4.22;3.78;;;;;;;8.76;73.79;100548.56;4995997;28;20041;-40
2021/11/07 11:02:50;;;;;;;3.85;3.25;;;;;;;8.77;73.67;100545.03;4994399;28;20030;-42
2021/11/07 11:05:25;;;;;;;3.83;3.42;;;;;;;8.77;73.71;100538.94;4994599;28;20057;-40
2021/11/07 11:07:57;;;;;;;4.25;3.33;;;;;;;8.78;73.70;100536.31;4997915;28;20068;-41
2021/11/07 11:10:35;;;;;;;4.13;3.83;;;;;;;8.79;73.69;100539.78;5005691;28;20046;-42
2021/11/07 11:13:19;;;;;;;4.55;4.07;;;;;;;8.78;73.79;100533.66;5010596;28;20030;-41
2021/11/07 11:19:26;;;;;;;3.67;3.38;;;;;;;8.79;73.54;100527.53;4985075;28;20043;-42
2021/11/07 11:22:45;;;;;;;3.80;3.50;;;;;;;8.79;73.86;100524.00;4981820;28;20053;-42
2021/11/07 11:31:26;;;;;;;4.50;3.63;;;;;;;8.77;73.95;100496.84;4971649;28;20495;-42
2021/11/07 11:33:55;;;;;;;3.77;3.37;;;;;;;8.78;73.91;100488.97;4999118;28;20122;-42
2021/11/07 11:36:32;;;;;;;3.60;3.30;;;;;;;8.79;73.82;100495.97;4995517;28;20339;-42
2021/11/07 11:39:07;;;;;;;7.32;3.97;;;;;;;8.78;73.87;100486.34;5000356;28;20436;-42
2021/11/07 11:41:54;;;;;;;3.92;3.40;;;;;;;8.80;73.76;100492.44;4998420;28;20447;-41
2021/11/07 11:44:21;;;;;;;5.00;3.47;;;;;;;8.79;74.01;100493.34;4989302;28;20449;-41
2021/11/07 11:46:57;;;;;;;4.35;3.47;;;;;;;8.80;73.74;100487.19;4991537;28;20409;-42
2021/11/07 11:52:13;;;;;;;3.55;3.25;;;;;;;8.82;73.68;100480.19;4996356;28;20026;-42
2021/11/07 11:55:01;;;;;;;3.55;3.25;;;;;;;8.83;73.86;100481.03;4992707;28;20038;-41
2021/11/07 12:03:06;;;;;;;3.40;3.10;;;;;;;8.84;73.71;100465.25;5006220;28;20049;-42
2021/11/07 12:05:54;;;;;;;3.70;3.15;;;;;;;8.85;73.74;100467.03;4998789;28;20032;-43
2021/11/07 12:11:16;;;;;;;4.32;3.42;;;;;;;8.88;73.87;100457.34;5001134;28;20033;-42
2021/11/07 12:13:48;;;;;;;3.28;3.00;;;;;;;8.87;73.77;100451.19;5001003;28;20578;-41
2021/11/07 12:16:19;;;;;;;2.90;2.65;;;;;;;8.87;73.59;100455.59;4994261;28;20395;-43
2021/11/07 12:19:02;;;;;;;3.35;2.92;;;;;;;8.88;73.77;100462.59;4999953;28;20487;-42
2021/11/07 12:21:55;;;;;;;3.78;3.42;;;;;;;8.89;73.68;100459.97;4994032;28;20026;-41
2021/11/07 12:24:30;;;;;;;4.20;3.08;;;;;;;8.89;73.85;100454.72;5003881;28;20113;-40
2021/11/07 12:27:23;;;;;;;3.63;3.25;;;;;;;8.88;73.73;100445.09;5000131;28;20089;-40
2021/11/07 12:29:58;;;;;;;3.00;2.80;;;;;;;8.90;73.90;100445.06;5004960;28;20025;-41
2021/11/07 12:32:45;;;;;;;3.33;3.03;;;;;;;8.90;73.76;100440.66;5006996;28;20030;-42
2021/11/07 12:35:19;;;;;;;4.05;3.15;;;;;;;8.90;73.64;100439.81;5003796;28;20084;-43
2021/11/07 12:41:06;;;;;;;3.38;3.08;;;;;;;8.88;73.85;100431.94;4990770;28;20107;-41
2021/11/07 12:43:36;;;;;;;3.70;3.05;;;;;;;8.90;73.66;100435.41;4997959;28;20853;-42
2021/11/07 12:47:06;;;;;;;2.85;2.63;;;;;;;8.90;73.70;100440.66;4998605;28;20087;-42
2021/11/07 12:49:15;;;;;;;3.22;2.97;;;;;;;8.90;73.86;100432.78;4991026;28;20081;-42
2021/11/07 12:51:49;;;;;;;4.55;2.97;;;;;;;8.91;73.64;100426.66;4994994;28;20553;-41
2021/11/07 12:54:17;;;;;;;3.22;2.92;;;;;;;8.91;73.64;100428.41;4995345;28;20030;-42
2021/11/07 12:57:03;;;;;;;3.47;3.05;;;;;;;8.91;73.77;100420.50;4995148;28;20024;-41
2021/11/07 12:59:33;;;;;;;3.22;2.97;;;;;;;8.91;73.57;100420.50;4996995;28;20084;-42
2021/11/07 13:02:04;;;;;;;3.20;2.50;;;;;;;8.91;73.64;100423.13;4997116;28;20105;-41
2021/11/07 13:04:31;;;;;;;;;;;;;;;8.92;73.48;100424.88;5000892;28;20050;-42
2021/11/07 13:07:01;;;;;;;3.90;2.70;;;;;;;8.91;73.76;100420.50;5000465;28;20432;-42
2021/11/07 13:09:42;;;;;;;2.75;2.55;;;;;;;8.92;73.68;100427.50;5009333;28;20030;-41
2021/11/07 13:12:20;;;;;;;4.07;2.72;;;;;;;8.91;73.68;100421.41;5013900;28;20386;-41
2021/11/07 13:15:19;;;;;;;3.35;2.78;;;;;;;8.91;73.62;100423.13;5002554;28;20031;-42
2021/11/07 13:23:59;;;;;;;3.05;2.75;;;;;;;8.92;73.88;100435.41;5000560;28;20483;-41
2021/11/07 13:29:16;;;;;;;2.97;2.67;;;;;;;8.93;73.99;100450.28;5005890;28;20030;-41
2021/11/07 13:31:58;;;;;;;3.30;3.00;;;;;;;8.93;73.97;100455.56;5014157;28;20461;-41